createdAt,value
2019-05-01T00:00:16.355Z,10.41
2019-05-01T00:02:45.846Z,10.36
2019-05-01T00:05:18.172Z,10.33
2019-05-01T00:07:50.441Z,10.31
2019-05-01T00:10:22.792Z,10.30
2019-05-01T00:12:55.077Z,10.27
2019-05-01T00:15:27.306Z,10.30
2019-05-01T00:17:59.578Z,10.32
2019-05-01T00:20:31.844Z,10.31
2019-05-01T00:23:04.059Z,10.23
2019-05-01T00:25:36.385Z,10.12
2019-05-01T00:28:08.795Z,10.04
2019-05-01T00:30:41.134Z,10.03
2019-05-01T00:33:13.946Z,10.04
2019-05-01T00:35:46.356Z,10.07
2019-05-01T00:38:18.756Z,10.07
2019-05-01T00:40:50.988Z,10.09
2019-05-01T00:43:23.258Z,10.09
2019-05-01T00:45:55.602Z,10.13
2019-05-01T00:48:27.842Z,10.15
2019-05-01T00:51:00.132Z,10.12
2019-05-01T00:53:32.454Z,10.03
2019-05-01T00:56:04.722Z,9.93
2019-05-01T00:58:38.975Z,9.90
2019-05-01T01:01:11.269Z,9.95
2019-05-01T01:03:43.380Z,9.99
2019-05-01T01:06:15.632Z,9.99
2019-05-01T01:08:47.853Z,10.00
2019-05-01T01:11:20.094Z,10.01
2019-05-01T01:13:52.353Z,10.02
2019-05-01T01:16:24.598Z,10.05
2019-05-01T01:18:56.831Z,10.11
2019-05-01T01:21:29.121Z,10.19
2019-05-01T01:24:01.210Z,10.26
2019-05-01T01:26:33.665Z,10.33
2019-05-01T01:29:05.952Z,10.36
2019-05-01T01:31:38.202Z,10.34
2019-05-01T01:34:10.470Z,10.31
2019-05-01T01:36:45.022Z,10.25
2019-05-01T01:39:17.257Z,10.17
2019-05-01T01:41:49.536Z,10.17
2019-05-01T01:44:23.318Z,10.17
2019-05-01T01:46:57.853Z,10.21
2019-05-01T01:49:30.072Z,10.23
2019-05-01T01:52:02.345Z,10.27
2019-05-01T01:54:34.614Z,10.32
2019-05-01T01:57:06.917Z,10.38
2019-05-01T01:59:39.222Z,10.47
2019-05-01T02:02:11.526Z,10.55
2019-05-01T02:04:43.767Z,10.64
2019-05-01T02:07:16.070Z,10.69
2019-05-01T02:09:48.278Z,10.74
2019-05-01T02:12:20.540Z,10.80
2019-05-01T02:14:52.821Z,10.85
2019-05-01T02:17:26.116Z,10.90
2019-05-01T02:19:58.379Z,10.95
2019-05-01T02:22:30.626Z,10.99
2019-05-01T02:25:02.872Z,10.99
2019-05-01T02:27:35.174Z,10.95
2019-05-01T02:30:07.412Z,10.93
2019-05-01T02:32:39.753Z,10.93
2019-05-01T02:35:11.990Z,10.94
2019-05-01T02:37:45.311Z,10.94
2019-05-01T02:40:17.565Z,10.94
2019-05-01T02:42:49.816Z,10.94
2019-05-01T02:45:22.041Z,10.95
2019-05-01T02:47:54.248Z,10.92
2019-05-01T02:50:26.469Z,10.90
2019-05-01T02:52:58.748Z,10.88
2019-05-01T02:55:31.015Z,10.88
2019-05-01T02:58:03.263Z,10.87
2019-05-01T03:00:35.506Z,10.86
2019-05-01T03:03:07.816Z,10.90
2019-05-01T03:05:40.070Z,10.82
2019-05-01T03:08:12.339Z,10.82
2019-05-01T03:10:44.564Z,10.81
2019-05-01T03:13:16.847Z,10.74
2019-05-01T03:15:49.448Z,10.72
2019-05-01T03:18:21.712Z,10.71
2019-05-01T03:20:53.981Z,10.73
2019-05-01T03:23:26.225Z,10.76
2019-05-01T03:25:59.263Z,10.79
2019-05-01T03:28:31.495Z,10.80
2019-05-01T03:31:03.730Z,10.81
2019-05-01T03:33:37.097Z,10.80
2019-05-01T03:36:09.353Z,10.81
2019-05-01T03:38:41.587Z,10.80
2019-05-01T03:41:13.863Z,10.76
2019-05-01T03:43:46.243Z,10.78
2019-05-01T03:46:18.541Z,10.78
2019-05-01T03:48:50.845Z,10.81
2019-05-01T03:51:23.185Z,10.81
2019-05-01T03:53:55.388Z,10.77
2019-05-01T03:56:27.651Z,10.76
2019-05-01T03:58:59.908Z,10.76
2019-05-01T04:01:32.567Z,10.79
2019-05-01T04:04:04.852Z,10.77
2019-05-01T04:06:37.118Z,10.71
2019-05-01T04:09:09.392Z,10.69
2019-05-01T04:11:41.602Z,10.69
2019-05-01T04:14:14.336Z,10.69
2019-05-01T04:16:46.592Z,10.67
2019-05-01T04:19:18.793Z,10.65
2019-05-01T04:21:51.036Z,10.64
2019-05-01T04:24:23.273Z,10.57
2019-05-01T04:26:55.510Z,10.52
2019-05-01T04:29:27.763Z,10.41
2019-05-01T04:32:00.061Z,10.42
2019-05-01T04:34:32.267Z,10.47
2019-05-01T04:37:04.477Z,10.49
2019-05-01T04:39:36.749Z,10.56
2019-05-01T04:42:09.231Z,10.51
2019-05-01T04:44:41.447Z,10.50
2019-05-01T04:47:13.718Z,10.58
2019-05-01T04:49:45.985Z,10.61
2019-05-01T04:52:18.205Z,10.63
2019-05-01T04:54:50.450Z,10.69
2019-05-01T04:57:22.684Z,10.73
2019-05-01T04:59:54.963Z,10.73
2019-05-01T05:02:27.204Z,10.68
2019-05-01T05:04:59.498Z,10.73
2019-05-01T05:07:31.723Z,10.77
2019-05-01T05:10:04.014Z,10.74
2019-05-01T05:12:36.253Z,10.78
2019-05-01T05:15:08.453Z,10.84
2019-05-01T05:17:40.683Z,10.95
2019-05-01T05:20:12.895Z,11.03
2019-05-01T05:22:45.123Z,11.07
2019-05-01T05:25:17.373Z,11.08
2019-05-01T05:27:49.584Z,11.08
2019-05-01T05:30:21.843Z,11.12
2019-05-01T05:32:54.138Z,11.10
2019-05-01T05:35:26.324Z,11.14
2019-05-01T05:37:58.543Z,11.12
2019-05-01T05:40:30.919Z,11.18
2019-05-01T05:43:03.164Z,11.24
2019-05-01T05:45:35.387Z,11.35
2019-05-01T05:48:07.682Z,11.48
2019-05-01T05:50:39.920Z,11.59
2019-05-01T05:53:12.242Z,11.66
2019-05-01T05:55:44.607Z,11.70
2019-05-01T05:58:16.859Z,11.71
2019-05-01T06:00:49.187Z,11.64
2019-05-01T06:03:30.936Z,11.46
2019-05-01T06:05:55.701Z,11.46
2019-05-01T06:08:27.940Z,11.59
2019-05-01T06:11:00.225Z,11.73
2019-05-01T06:13:32.593Z,11.77
2019-05-01T06:16:06.493Z,11.87
2019-05-01T06:18:39.306Z,12.00
2019-05-01T06:21:13.072Z,11.97
2019-05-01T06:23:45.613Z,11.67
2019-05-01T06:26:17.682Z,11.49
2019-05-01T06:28:49.987Z,11.47
2019-05-01T06:31:23.373Z,11.60
2019-05-01T06:33:56.524Z,11.59
2019-05-01T06:36:28.784Z,11.72
2019-05-01T06:39:01.076Z,11.88
2019-05-01T06:41:42.190Z,12.03
2019-05-01T06:44:08.885Z,12.08
2019-05-01T06:46:41.186Z,12.12
2019-05-01T06:49:13.968Z,12.16
2019-05-01T06:51:48.058Z,12.27
2019-05-01T06:54:20.238Z,12.31
2019-05-01T06:56:52.883Z,12.17
2019-05-01T06:59:26.264Z,12.13
2019-05-01T07:02:00.270Z,12.32
2019-05-01T07:04:38.077Z,12.44
2019-05-01T07:07:08.245Z,12.46
2019-05-01T07:09:44.246Z,12.31
2019-05-01T07:12:14.740Z,12.30
2019-05-01T07:14:50.928Z,12.36
2019-05-01T07:17:21.108Z,12.40
2019-05-01T07:19:53.164Z,12.51
2019-05-01T07:22:25.537Z,12.67
2019-05-01T07:24:58.933Z,12.73
2019-05-01T07:27:32.093Z,12.96
2019-05-01T07:30:04.851Z,13.28
2019-05-01T07:32:41.065Z,13.53
2019-05-01T07:35:11.118Z,13.59
2019-05-01T07:37:43.356Z,13.62
2019-05-01T07:40:15.583Z,13.35
2019-05-01T07:42:48.293Z,13.22
2019-05-01T07:45:20.785Z,13.19
2019-05-01T07:47:53.237Z,12.98
2019-05-01T07:50:31.567Z,13.21
2019-05-01T07:52:59.479Z,13.45
2019-05-01T07:55:31.776Z,13.55
2019-05-01T07:58:04.219Z,13.66
2019-05-01T08:00:36.892Z,13.60
2019-05-01T08:03:12.961Z,13.51
2019-05-01T08:05:46.732Z,13.48
2019-05-01T08:08:19.226Z,13.62
2019-05-01T08:10:51.532Z,13.92
2019-05-01T08:13:23.874Z,14.32
2019-05-01T08:15:56.249Z,14.58
2019-05-01T08:18:29.307Z,14.85
2019-05-01T08:21:01.696Z,15.16
2019-05-01T08:23:33.981Z,15.57
2019-05-01T08:26:08.753Z,15.66
2019-05-01T08:28:40.403Z,15.60
2019-05-01T08:31:12.710Z,15.30
2019-05-01T08:33:49.819Z,15.08
2019-05-01T08:36:18.952Z,15.09
2019-05-01T08:38:51.610Z,15.12
2019-05-01T08:41:27.010Z,15.07
2019-05-01T08:43:59.061Z,15.01
2019-05-01T08:46:34.232Z,15.00
2019-05-01T08:49:06.928Z,14.49
2019-05-01T08:51:41.560Z,14.03
2019-05-01T08:54:13.926Z,14.08
2019-05-01T08:56:46.168Z,14.21
2019-05-01T08:59:19.431Z,14.45
2019-05-01T09:02:08.447Z,14.75
2019-05-01T09:04:30.339Z,14.69
2019-05-01T09:07:00.513Z,14.69
2019-05-01T09:09:33.553Z,14.84
2019-05-01T09:12:06.789Z,15.02
2019-05-01T09:14:40.363Z,14.75
2019-05-01T09:17:12.590Z,14.80
2019-05-01T09:19:44.889Z,14.95
2019-05-01T09:22:17.343Z,15.26
2019-05-01T09:24:49.598Z,15.04
2019-05-01T09:27:23.756Z,14.62
2019-05-01T09:29:55.987Z,14.43
2019-05-01T09:32:28.322Z,14.77
2019-05-01T09:35:14.603Z,15.06
2019-05-01T09:37:35.942Z,14.95
2019-05-01T09:40:09.496Z,14.90
2019-05-01T09:42:44.760Z,14.97
2019-05-01T09:45:17.086Z,15.08
2019-05-01T09:47:50.503Z,15.30
2019-05-01T09:50:25.754Z,15.33
2019-05-01T09:52:59.719Z,15.20
2019-05-01T09:55:30.901Z,14.97
2019-05-01T09:58:03.098Z,15.04
2019-05-01T10:00:35.508Z,15.35
2019-05-01T10:03:07.750Z,15.50
2019-05-01T10:05:42.952Z,15.29
2019-05-01T10:08:14.481Z,15.35
2019-05-01T10:10:46.811Z,15.35
2019-05-01T10:13:22.314Z,15.41
2019-05-01T10:15:53.356Z,15.55
2019-05-01T10:18:25.581Z,15.22
2019-05-01T10:20:58.102Z,15.34
2019-05-01T10:23:31.268Z,15.53
2019-05-01T10:26:03.376Z,15.78
2019-05-01T10:28:35.628Z,16.03
2019-05-01T10:31:11.985Z,16.22
2019-05-01T10:33:41.925Z,16.29
2019-05-01T10:36:18.967Z,16.41
2019-05-01T10:38:48.308Z,15.95
2019-05-01T10:41:20.734Z,16.03
2019-05-01T10:43:53.208Z,16.07
2019-05-01T10:46:25.553Z,16.51
2019-05-01T10:48:58.060Z,16.96
2019-05-01T10:51:30.446Z,16.97
2019-05-01T10:54:02.712Z,16.74
2019-05-01T10:56:34.938Z,16.50
2019-05-01T10:59:07.165Z,16.28
2019-05-01T11:01:39.429Z,16.37
2019-05-01T11:04:11.765Z,16.62
2019-05-01T11:06:43.996Z,16.33
2019-05-01T11:09:16.236Z,15.91
2019-05-01T11:11:50.041Z,15.96
2019-05-01T11:14:22.565Z,15.77
2019-05-01T11:16:54.787Z,16.01
2019-05-01T11:19:29.584Z,16.27
2019-05-01T11:22:01.369Z,16.59
2019-05-01T11:24:34.113Z,17.06
2019-05-01T11:27:06.331Z,17.50
2019-05-01T11:29:38.885Z,18.17
2019-05-01T11:32:11.154Z,18.80
2019-05-01T11:34:43.414Z,19.24
2019-05-01T11:37:15.805Z,18.84
2019-05-01T11:39:48.117Z,19.12
2019-05-01T11:42:20.599Z,19.04
2019-05-01T11:44:52.834Z,18.19
2019-05-01T11:47:26.296Z,17.83
2019-05-01T11:49:58.730Z,18.81
2019-05-01T11:52:31.101Z,20.81
2019-05-01T11:55:03.338Z,22.10
2019-05-01T11:57:35.569Z,22.84
2019-05-01T12:00:07.792Z,22.31
2019-05-01T12:02:40.115Z,21.28
2019-05-01T12:05:12.514Z,19.91
2019-05-01T12:07:44.757Z,19.56
2019-05-01T12:10:17.087Z,20.65
2019-05-01T12:12:49.330Z,22.84
2019-05-01T12:15:21.633Z,24.79
2019-05-01T12:17:53.970Z,25.93
2019-05-01T12:20:26.382Z,26.93
2019-05-01T12:22:58.892Z,25.64
2019-05-01T12:25:31.109Z,24.29
2019-05-01T12:28:04.424Z,23.76
2019-05-01T12:30:36.629Z,24.33
2019-05-01T12:33:08.842Z,26.62
2019-05-01T12:35:41.121Z,27.53
2019-05-01T12:38:13.458Z,26.19
2019-05-01T12:40:45.784Z,24.81
2019-05-01T12:43:19.040Z,22.89
2019-05-01T12:45:51.892Z,22.70
2019-05-01T12:48:24.392Z,25.13
2019-05-01T12:50:56.937Z,27.30
2019-05-01T12:53:29.886Z,28.64
2019-05-01T12:56:02.743Z,28.88
2019-05-01T12:58:35.601Z,28.41
2019-05-01T13:01:07.905Z,26.10
2019-05-01T13:03:40.139Z,24.54
2019-05-01T13:06:14.418Z,25.26
2019-05-01T13:08:47.323Z,27.48
2019-05-01T13:11:20.159Z,28.93
2019-05-01T13:13:53.189Z,29.56
2019-05-01T13:16:26.067Z,29.60
2019-05-01T13:18:58.911Z,26.50
2019-05-01T13:21:31.185Z,24.82
2019-05-01T13:24:03.468Z,22.36
2019-05-01T13:26:35.701Z,22.06
2019-05-01T13:29:10.088Z,24.98
2019-05-01T13:31:42.311Z,27.24
2019-05-01T13:34:14.580Z,26.24
2019-05-01T13:36:46.893Z,25.37
2019-05-01T13:39:19.908Z,25.89
2019-05-01T13:41:52.831Z,26.99
2019-05-01T13:44:25.710Z,28.80
2019-05-01T13:46:58.591Z,30.10
2019-05-01T13:49:31.678Z,30.25
2019-05-01T13:52:05.460Z,29.48
2019-05-01T13:54:38.486Z,29.32
2019-05-01T13:57:11.349Z,30.31
2019-05-01T13:59:44.254Z,30.41
2019-05-01T14:02:17.136Z,30.03
2019-05-01T14:04:49.983Z,28.42
2019-05-01T14:07:22.946Z,26.01
2019-05-01T14:09:55.162Z,24.14
2019-05-01T14:12:27.416Z,22.94
2019-05-01T14:14:59.686Z,21.76
2019-05-01T14:17:33.087Z,20.63
2019-05-01T14:20:05.298Z,20.18
2019-05-01T14:22:37.591Z,19.73
2019-05-01T14:25:09.816Z,19.11
2019-05-01T14:27:42.497Z,19.07
2019-05-01T14:30:14.781Z,18.75
2019-05-01T14:32:47.007Z,18.17
2019-05-01T14:35:19.588Z,17.67
2019-05-01T14:37:51.872Z,17.46
2019-05-01T14:40:24.108Z,17.42
2019-05-01T14:42:56.441Z,17.22
2019-05-01T14:45:28.894Z,16.96
2019-05-01T14:48:01.173Z,17.02
2019-05-01T14:50:33.794Z,17.05
2019-05-01T14:53:05.914Z,16.99
2019-05-01T14:55:38.302Z,17.32
2019-05-01T14:58:10.609Z,17.20
2019-05-01T15:00:42.891Z,16.89
2019-05-01T15:03:15.162Z,16.62
2019-05-01T15:05:47.472Z,16.63
2019-05-01T15:08:19.844Z,17.17
2019-05-01T15:10:52.203Z,17.48
2019-05-01T15:13:24.713Z,17.57
2019-05-01T15:15:56.979Z,17.31
2019-05-01T15:18:29.275Z,17.21
2019-05-01T15:21:01.603Z,17.10
2019-05-01T15:23:33.922Z,17.34
2019-05-01T15:26:06.095Z,17.37
2019-05-01T15:28:40.513Z,17.28
2019-05-01T15:31:13.067Z,17.10
2019-05-01T15:33:45.380Z,17.36
2019-05-01T15:36:17.792Z,17.51
2019-05-01T15:38:50.041Z,17.18
2019-05-01T15:41:22.653Z,17.01
2019-05-01T15:43:54.940Z,16.73
2019-05-01T15:46:27.856Z,16.26
2019-05-01T15:49:00.679Z,16.03
2019-05-01T15:51:32.978Z,16.13
2019-05-01T15:54:05.329Z,16.17
2019-05-01T15:56:37.551Z,15.78
2019-05-01T15:59:09.842Z,15.78
2019-05-01T16:01:42.208Z,16.08
2019-05-01T16:04:15.407Z,16.50
2019-05-01T16:06:47.671Z,16.65
2019-05-01T16:09:20.153Z,17.12
2019-05-01T16:11:52.547Z,17.06
2019-05-01T16:14:24.933Z,16.96
2019-05-01T16:16:57.092Z,16.65
2019-05-01T16:19:29.446Z,16.70
2019-05-01T16:22:01.800Z,16.90
2019-05-01T16:24:34.027Z,16.95
2019-05-01T16:27:07.987Z,16.63
2019-05-01T16:29:40.698Z,16.57
2019-05-01T16:32:12.976Z,16.56
2019-05-01T16:34:45.685Z,16.51
2019-05-01T16:37:17.966Z,16.38
2019-05-01T16:39:50.285Z,16.20
2019-05-01T16:42:23.212Z,15.82
2019-05-01T16:44:55.440Z,15.46
2019-05-01T16:47:27.691Z,15.23
2019-05-01T16:49:59.974Z,14.97
2019-05-01T16:52:32.289Z,15.07
2019-05-01T16:55:04.599Z,15.61
2019-05-01T16:57:37.895Z,16.29
2019-05-01T17:00:10.371Z,16.91
2019-05-01T17:02:42.881Z,17.19
2019-05-01T17:05:15.168Z,17.39
2019-05-01T17:07:47.467Z,17.37
2019-05-01T17:10:19.533Z,17.26
2019-05-01T17:12:51.848Z,16.73
2019-05-01T17:15:24.123Z,16.14
2019-05-01T17:17:56.368Z,15.71
2019-05-01T17:20:28.628Z,15.96
2019-05-01T17:23:00.883Z,16.23
2019-05-01T17:25:33.087Z,17.05
2019-05-01T17:28:08.288Z,17.94
2019-05-01T17:30:39.606Z,17.20
2019-05-01T17:33:20.142Z,16.30
2019-05-01T17:35:45.782Z,15.73
2019-05-01T17:38:18.092Z,15.18
2019-05-01T17:40:52.110Z,14.79
2019-05-01T17:43:24.307Z,14.45
2019-05-01T17:45:56.535Z,13.98
2019-05-01T17:48:33.540Z,13.74
2019-05-01T17:51:02.783Z,13.55
2019-05-01T17:53:35.071Z,13.37
2019-05-01T17:56:09.973Z,13.24
2019-05-01T17:58:41.472Z,13.10
2019-05-01T18:01:13.772Z,12.96
2019-05-01T18:03:46.097Z,12.81
2019-05-01T18:06:18.363Z,12.71
2019-05-01T18:09:02.366Z,12.49
2019-05-01T18:11:24.651Z,12.50
2019-05-01T18:13:56.907Z,12.47
2019-05-01T18:16:29.178Z,12.47
2019-05-01T18:19:01.588Z,12.45
2019-05-01T18:21:33.884Z,12.40
2019-05-01T18:24:06.322Z,12.25
2019-05-01T18:26:42.925Z,12.14
2019-05-01T18:29:12.556Z,12.01
2019-05-01T18:31:44.811Z,11.86
2019-05-01T18:34:17.186Z,11.71
2019-05-01T18:36:49.591Z,11.61
2019-05-01T18:39:25.716Z,11.49
2019-05-01T18:41:55.808Z,11.41
2019-05-01T18:44:28.067Z,11.34
2019-05-01T18:47:00.276Z,11.31
2019-05-01T18:49:32.556Z,11.31
2019-05-01T18:52:05.754Z,11.27
2019-05-01T18:54:37.983Z,11.18
2019-05-01T18:57:10.287Z,11.08
2019-05-01T18:59:42.621Z,10.97
2019-05-01T19:02:14.894Z,10.94
2019-05-01T19:04:47.176Z,10.92
2019-05-01T19:07:19.436Z,10.85
2019-05-01T19:09:51.671Z,10.77
2019-05-01T19:12:24.152Z,10.68
2019-05-01T19:15:00.352Z,10.60
2019-05-01T19:17:30.539Z,10.56
2019-05-01T19:20:02.970Z,10.51
2019-05-01T19:22:36.445Z,10.53
2019-05-01T19:25:10.952Z,10.52
2019-05-01T19:27:43.084Z,10.49
2019-05-01T19:30:16.818Z,10.41
2019-05-01T19:32:49.312Z,10.38
2019-05-01T19:35:23.570Z,10.32
2019-05-01T19:37:57.466Z,10.33
2019-05-01T19:40:32.851Z,10.28
2019-05-01T19:43:05.804Z,10.22
2019-05-01T19:45:38.101Z,10.18
2019-05-01T19:48:10.375Z,10.15
2019-05-01T19:50:47.864Z,10.11
2019-05-01T19:53:16.670Z,10.11
2019-05-01T19:55:48.920Z,10.12
2019-05-01T19:58:21.528Z,10.09
2019-05-01T20:00:53.901Z,10.06
2019-05-01T20:03:30.777Z,10.02
2019-05-01T20:06:05.341Z,9.95
2019-05-01T20:08:34.826Z,9.87
2019-05-01T20:11:09.565Z,9.82
2019-05-01T20:13:41.106Z,9.79
2019-05-01T20:16:13.475Z,9.76
2019-05-01T20:18:45.753Z,9.75
2019-05-01T20:21:18.083Z,9.72
2019-05-01T20:23:50.395Z,9.67
2019-05-01T20:26:26.956Z,9.67
2019-05-01T20:28:57.449Z,9.66
2019-05-01T20:31:32.802Z,9.65
2019-05-01T20:34:04.525Z,9.65
2019-05-01T20:36:36.843Z,9.63
2019-05-01T20:39:09.133Z,9.60
2019-05-01T20:41:42.712Z,9.59
2019-05-01T20:44:22.969Z,9.56
2019-05-01T20:46:50.706Z,9.51
2019-05-01T20:49:22.982Z,9.50
2019-05-01T20:51:55.251Z,9.48
2019-05-01T20:54:27.542Z,9.46
2019-05-01T20:57:00.231Z,9.40
2019-05-01T20:59:35.219Z,9.38
2019-05-01T21:02:08.015Z,9.34
2019-05-01T21:04:41.479Z,9.29
2019-05-01T21:07:15.430Z,9.27
2019-05-01T21:09:52.571Z,9.26
2019-05-01T21:12:21.778Z,9.25
2019-05-01T21:14:55.744Z,9.26
2019-05-01T21:17:28.038Z,9.27
2019-05-01T21:20:00.330Z,9.28
2019-05-01T21:22:33.389Z,9.30
2019-05-01T21:25:05.942Z,9.31
2019-05-01T21:27:38.245Z,9.30
2019-05-01T21:30:10.579Z,9.29
2019-05-01T21:32:44.318Z,9.33
2019-05-01T21:35:17.000Z,9.32
2019-05-01T21:37:49.367Z,9.30
2019-05-01T21:40:23.035Z,9.23
2019-05-01T21:42:56.623Z,9.21
2019-05-01T21:45:28.881Z,9.18
2019-05-01T21:48:03.044Z,9.18
2019-05-01T21:50:35.199Z,9.20
2019-05-01T21:53:07.375Z,9.16
2019-05-01T21:55:39.613Z,9.14
2019-05-01T21:58:11.938Z,9.13
2019-05-01T22:00:44.227Z,9.08
2019-05-01T22:03:21.540Z,9.03
2019-05-01T22:05:50.997Z,8.96
2019-05-01T22:08:23.250Z,8.96
2019-05-01T22:10:57.627Z,8.97
2019-05-01T22:13:29.975Z,8.95
2019-05-01T22:16:02.364Z,8.92
2019-05-01T22:18:34.731Z,8.90
2019-05-01T22:21:06.997Z,8.84
2019-05-01T22:23:39.679Z,8.83
2019-05-01T22:26:11.986Z,8.83
2019-05-01T22:28:44.553Z,8.84
2019-05-01T22:31:21.678Z,8.85
2019-05-01T22:33:50.904Z,8.85
2019-05-01T22:36:23.181Z,8.86
2019-05-01T22:38:55.649Z,8.86
2019-05-01T22:41:28.025Z,8.87
2019-05-01T22:44:00.340Z,8.87
2019-05-01T22:46:33.882Z,8.86
2019-05-01T22:49:06.587Z,8.85
2019-05-01T22:51:38.889Z,8.84
2019-05-01T22:54:11.132Z,8.85
2019-05-01T22:56:43.500Z,8.84
2019-05-01T22:59:15.777Z,8.81
2019-05-01T23:01:49.249Z,8.80
2019-05-01T23:04:22.051Z,8.81
2019-05-01T23:06:54.347Z,8.78
2019-05-01T23:09:28.383Z,8.72
2019-05-01T23:12:00.516Z,8.66
2019-05-01T23:14:32.840Z,8.63
2019-05-01T23:17:05.284Z,8.60
2019-05-01T23:19:37.573Z,8.57
2019-05-01T23:22:09.814Z,8.52
2019-05-01T23:24:42.119Z,8.53
2019-05-01T23:27:14.358Z,8.53
2019-05-01T23:29:46.730Z,8.52
2019-05-01T23:32:18.960Z,8.51
2019-05-01T23:34:51.271Z,8.48
2019-05-01T23:37:25.987Z,8.41
2019-05-01T23:39:57.606Z,8.37
2019-05-01T23:42:29.920Z,8.35
2019-05-01T23:45:02.140Z,8.30
2019-05-01T23:47:34.433Z,8.25
2019-05-01T23:50:09.017Z,8.24
2019-05-01T23:52:41.328Z,8.23
2019-05-01T23:55:13.578Z,8.20
2019-05-01T23:57:45.840Z,8.19
